createdAt,value
2019-04-06T00:01:35.562Z,10.83
2019-04-06T00:04:05.846Z,10.30
2019-04-06T00:06:36.066Z,9.90
2019-04-06T00:09:07.208Z,11.37
2019-04-06T00:11:37.324Z,11.50
2019-04-06T00:14:07.425Z,10.57
2019-04-06T00:16:37.850Z,10.83
2019-04-06T00:19:07.990Z,12.83
2019-04-06T00:21:38.144Z,12.30
2019-04-06T00:24:08.413Z,12.77
2019-04-06T00:26:38.831Z,12.17
2019-04-06T00:29:09.197Z,12.07
2019-04-06T00:31:50.327Z,13.47
2019-04-06T00:34:20.851Z,13.67
2019-04-06T00:36:51.103Z,13.53
2019-04-06T00:39:21.520Z,14.57
2019-04-06T00:41:51.785Z,13.07
2019-04-06T00:44:22.785Z,14.23
2019-04-06T00:46:52.926Z,13.07
2019-04-06T00:49:22.978Z,13.27
2019-04-06T00:51:53.170Z,13.13
2019-04-06T00:54:23.331Z,14.50
2019-04-06T00:56:53.959Z,12.77
2019-04-06T00:59:24.183Z,12.97
2019-04-06T01:01:54.311Z,13.60
2019-04-06T01:04:24.427Z,13.47
2019-04-06T01:06:55.990Z,14.67
2019-04-06T01:09:26.262Z,13.20
2019-04-06T01:11:58.563Z,12.77
2019-04-06T01:14:31.154Z,11.23
2019-04-06T01:17:01.284Z,12.97
2019-04-06T01:19:32.414Z,14.53
2019-04-06T01:22:02.634Z,15.50
2019-04-06T01:24:32.841Z,12.07
2019-04-06T01:27:02.985Z,13.23
2019-04-06T01:29:33.165Z,13.57
2019-04-06T01:32:04.030Z,14.67
2019-04-06T01:34:34.602Z,12.13
2019-04-06T01:37:04.799Z,13.87
2019-04-06T01:39:35.223Z,13.43
2019-04-06T01:42:05.777Z,13.27
2019-04-06T01:44:36.365Z,13.67
2019-04-06T01:47:07.975Z,14.03
2019-04-06T01:49:38.199Z,15.67
2019-04-06T01:52:08.396Z,16.83
2019-04-06T01:54:38.493Z,16.33
2019-04-06T01:57:08.790Z,17.70
2019-04-06T01:59:39.601Z,15.33
2019-04-06T02:02:28.666Z,16.63
2019-04-06T02:04:59.097Z,15.43
2019-04-06T02:07:29.388Z,13.93
2019-04-06T02:10:00.036Z,15.80
2019-04-06T02:12:30.283Z,16.10
2019-04-06T02:15:01.432Z,15.83
2019-04-06T02:17:31.973Z,16.27
2019-04-06T02:20:03.067Z,13.83
2019-04-06T02:22:34.772Z,13.70
2019-04-06T02:25:06.626Z,14.57
2019-04-06T02:27:38.358Z,17.07
2019-04-06T02:30:24.088Z,17.67
2019-04-06T02:33:20.317Z,16.87
2019-04-06T02:36:08.885Z,15.50
2019-04-06T02:38:58.011Z,13.77
2019-04-06T02:42:02.249Z,13.10
2019-04-06T02:44:32.354Z,14.20
2019-04-06T02:47:02.997Z,14.47
2019-04-06T02:49:34.215Z,13.23
2019-04-06T02:52:04.331Z,14.63
2019-04-06T02:54:34.542Z,14.43
2019-04-06T02:57:04.621Z,13.50
2019-04-06T02:59:35.176Z,13.70
2019-04-06T03:02:05.415Z,15.87
2019-04-06T03:04:35.599Z,13.97
2019-04-06T03:07:07.773Z,16.13
2019-04-06T03:09:38.338Z,14.20
2019-04-06T03:12:10.998Z,17.67
2019-04-06T03:14:44.216Z,16.93
2019-04-06T03:17:13.442Z,16.50
2019-04-06T03:19:43.897Z,16.13
2019-04-06T03:22:14.213Z,16.43
2019-04-06T03:24:46.963Z,17.17
2019-04-06T03:27:17.064Z,15.03
2019-04-06T03:29:57.283Z,16.00
2019-04-06T03:32:21.507Z,16.87
2019-04-06T03:34:53.229Z,16.50
2019-04-06T03:37:23.319Z,15.13
2019-04-06T03:39:53.603Z,15.30
2019-04-06T03:42:23.687Z,15.40
2019-04-06T03:44:54.136Z,14.97
2019-04-06T03:47:25.167Z,15.90
2019-04-06T03:49:55.313Z,13.40
2019-04-06T03:52:26.851Z,15.47
2019-04-06T03:54:57.274Z,14.50
2019-04-06T03:57:27.604Z,16.10
2019-04-06T03:59:57.760Z,14.13
2019-04-06T04:02:27.806Z,14.40
2019-04-06T04:04:57.942Z,13.47
2019-04-06T04:07:28.061Z,14.00
2019-04-06T04:09:58.418Z,12.63
2019-04-06T04:12:28.526Z,14.27
2019-04-06T04:14:58.927Z,13.70
2019-04-06T04:17:30.094Z,12.47
2019-04-06T04:20:00.420Z,13.30
2019-04-06T04:22:30.577Z,14.13
2019-04-06T04:25:01.730Z,13.03
2019-04-06T04:27:31.828Z,15.43
2019-04-06T04:30:02.024Z,11.27
2019-04-06T04:32:32.179Z,12.63
2019-04-06T04:35:02.415Z,12.37
2019-04-06T04:37:32.767Z,12.93
2019-04-06T04:40:03.390Z,12.87
2019-04-06T04:42:33.552Z,13.93
2019-04-06T04:45:04.870Z,12.07
2019-04-06T04:47:35.061Z,12.47
2019-04-06T04:50:07.898Z,12.17
2019-04-06T04:52:38.043Z,14.37
2019-04-06T04:55:08.319Z,13.17
2019-04-06T04:57:41.339Z,12.97
2019-04-06T05:00:11.478Z,13.30
2019-04-06T05:02:41.564Z,13.87
2019-04-06T05:05:11.777Z,14.77
2019-04-06T05:07:42.064Z,14.43
2019-04-06T05:10:13.351Z,14.73
2019-04-06T05:12:43.608Z,13.93
2019-04-06T05:15:15.942Z,13.90
2019-04-06T05:17:46.067Z,14.47
2019-04-06T05:20:16.184Z,14.60
2019-04-06T05:22:46.318Z,13.60
2019-04-06T05:25:16.989Z,15.07
2019-04-06T05:27:52.215Z,14.13
2019-04-06T05:30:19.186Z,14.43
2019-04-06T05:32:49.381Z,12.43
2019-04-06T05:35:19.569Z,13.70
2019-04-06T05:37:49.907Z,14.80
2019-04-06T05:40:21.102Z,14.07
2019-04-06T05:42:51.337Z,12.97
2019-04-06T05:45:21.741Z,15.83
2019-04-06T05:47:51.861Z,14.20
2019-04-06T05:50:23.296Z,14.83
2019-04-06T05:52:53.626Z,16.30
2019-04-06T05:55:24.737Z,15.80
2019-04-06T05:58:03.384Z,15.50
2019-04-06T06:00:27.989Z,14.57
2019-04-06T06:02:58.568Z,14.97
2019-04-06T06:05:30.108Z,15.27
2019-04-06T06:08:00.292Z,15.17
2019-04-06T06:10:30.567Z,13.60
2019-04-06T06:13:03.046Z,14.47
2019-04-06T06:15:33.158Z,14.97
2019-04-06T06:18:03.312Z,21.40
2019-04-06T06:20:33.938Z,13.30
2019-04-06T06:23:04.469Z,13.83
2019-04-06T06:25:34.676Z,15.27
2019-04-06T06:28:13.892Z,18.60
2019-04-06T06:30:36.881Z,14.73
2019-04-06T06:33:07.068Z,16.57
2019-04-06T06:35:37.186Z,16.43
2019-04-06T06:38:07.339Z,17.80
2019-04-06T06:40:37.636Z,17.80
2019-04-06T06:43:07.930Z,17.23
2019-04-06T06:45:38.202Z,16.47
2019-04-06T06:48:08.751Z,19.00
2019-04-06T06:50:39.020Z,17.60
2019-04-06T06:53:09.412Z,17.03
2019-04-06T06:55:39.812Z,19.40
2019-04-06T06:58:09.969Z,16.97
2019-04-06T07:00:40.201Z,15.13
2019-04-06T07:03:10.690Z,18.87
2019-04-06T07:05:40.815Z,17.23
2019-04-06T07:08:11.520Z,16.30
2019-04-06T07:10:41.757Z,15.67
2019-04-06T07:13:11.978Z,17.10
2019-04-06T07:15:43.376Z,17.73
2019-04-06T07:18:13.710Z,17.90
2019-04-06T07:20:44.383Z,17.53
2019-04-06T07:23:16.221Z,17.90
2019-04-06T07:25:56.931Z,16.37
2019-04-06T07:28:20.355Z,16.50
2019-04-06T07:30:50.626Z,17.50
2019-04-06T07:33:20.876Z,16.30
2019-04-06T07:35:52.659Z,18.07
2019-04-06T07:38:23.219Z,17.03
2019-04-06T07:40:53.477Z,16.57
2019-04-06T07:43:23.859Z,17.53
2019-04-06T07:45:54.103Z,15.77
2019-04-06T07:48:24.748Z,16.47
2019-04-06T07:50:55.417Z,17.30
2019-04-06T07:53:26.677Z,16.50
2019-04-06T07:55:57.138Z,18.17
2019-04-06T07:58:27.347Z,17.97
2019-04-06T08:00:58.373Z,16.60
2019-04-06T08:03:28.525Z,16.77
2019-04-06T08:06:00.130Z,15.83
2019-04-06T08:08:30.531Z,11.57
2019-04-06T08:11:01.024Z,13.70
2019-04-06T08:13:31.886Z,11.13
2019-04-06T08:16:03.434Z,10.33
2019-04-06T08:18:33.666Z,11.23
2019-04-06T08:21:04.887Z,10.53
2019-04-06T08:23:35.361Z,10.77
2019-04-06T08:26:06.218Z,10.40
2019-04-06T08:28:36.457Z,10.47
2019-04-06T08:31:06.916Z,11.13
2019-04-06T08:33:37.142Z,10.07
2019-04-06T08:36:08.060Z,10.40
2019-04-06T08:38:38.362Z,11.93
2019-04-06T08:41:08.894Z,13.37
2019-04-06T08:43:40.631Z,11.60
2019-04-06T08:46:11.228Z,10.90
2019-04-06T08:48:41.633Z,11.87
2019-04-06T08:51:12.710Z,12.20
2019-04-06T08:53:43.035Z,11.60
2019-04-06T08:56:13.700Z,12.37
2019-04-06T08:58:44.070Z,12.90
2019-04-06T09:01:14.321Z,14.93
2019-04-06T09:03:44.683Z,12.77
2019-04-06T09:06:15.266Z,15.20
2019-04-06T09:08:46.805Z,15.40
2019-04-06T09:11:17.598Z,15.53
2019-04-06T09:13:48.820Z,15.87
2019-04-06T09:16:21.086Z,16.33
2019-04-06T09:18:51.245Z,15.50
2019-04-06T09:21:22.603Z,17.03
2019-04-06T09:23:53.634Z,16.83
2019-04-06T09:26:24.050Z,16.53
2019-04-06T09:28:54.267Z,15.57
2019-04-06T09:31:24.874Z,14.20
2019-04-06T09:33:55.042Z,13.53
2019-04-06T09:36:25.250Z,14.90
2019-04-06T09:38:55.691Z,13.90
2019-04-06T09:41:26.651Z,13.77
2019-04-06T09:43:57.260Z,16.10
2019-04-06T09:46:52.575Z,14.87
2019-04-06T09:49:41.192Z,14.33
2019-04-06T09:52:26.706Z,15.80
2019-04-06T09:55:01.740Z,15.93
2019-04-06T09:58:01.100Z,17.63
2019-04-06T10:00:51.429Z,15.93
2019-04-06T10:03:31.512Z,17.07
2019-04-06T10:06:23.471Z,16.40
2019-04-06T10:09:18.756Z,12.87
2019-04-06T10:12:12.454Z,10.83
2019-04-06T10:14:54.465Z,11.87
2019-04-06T10:17:46.405Z,10.53
2019-04-06T10:20:34.429Z,11.57
2019-04-06T10:23:18.431Z,14.03
2019-04-06T10:26:25.451Z,13.63
2019-04-06T10:29:16.531Z,12.53
2019-04-06T10:32:10.147Z,11.87
2019-04-06T10:34:52.972Z,12.70
2019-04-06T10:37:42.117Z,12.53
2019-04-06T10:40:30.053Z,11.07
2019-04-06T10:43:19.600Z,11.37
2019-04-06T10:46:08.751Z,11.90
2019-04-06T10:49:07.982Z,13.60
2019-04-06T10:51:55.589Z,12.40
2019-04-06T10:54:44.746Z,13.03
2019-04-06T10:57:27.763Z,13.07
2019-04-06T11:00:20.142Z,12.13
2019-04-06T11:02:58.076Z,12.37
2019-04-06T11:05:57.340Z,12.97
2019-04-06T11:08:35.085Z,10.93
2019-04-06T11:11:19.772Z,11.03
2019-04-06T11:14:09.214Z,9.70
2019-04-06T11:17:01.135Z,12.00
2019-04-06T11:19:46.669Z,11.00
2019-04-06T11:22:24.982Z,11.07
2019-04-06T11:25:16.157Z,11.37
2019-04-06T11:28:12.901Z,11.97
2019-04-06T11:31:05.290Z,11.67
2019-04-06T11:33:55.528Z,11.60
2019-04-06T11:36:48.046Z,11.97
2019-04-06T11:39:37.227Z,12.83
2019-04-06T11:42:30.058Z,12.10
2019-04-06T11:45:18.616Z,12.50
2019-04-06T11:47:55.997Z,11.60
2019-04-06T11:50:38.878Z,11.60
2019-04-06T11:53:14.955Z,12.20
2019-04-06T11:55:58.494Z,11.93
2019-04-06T11:58:48.057Z,12.47
2019-04-06T12:01:31.948Z,11.70
2019-04-06T12:04:15.504Z,12.97
2019-04-06T12:07:04.747Z,12.30
2019-04-06T12:09:57.305Z,12.00
2019-04-06T12:12:46.546Z,12.23
2019-04-06T12:15:39.429Z,11.43
2019-04-06T12:18:31.824Z,12.13
2019-04-06T12:21:22.878Z,12.70
2019-04-06T12:24:15.239Z,11.87
2019-04-06T12:27:00.094Z,12.10
2019-04-06T12:29:55.874Z,12.17
2019-04-06T12:32:48.159Z,12.77
2019-04-06T12:35:40.680Z,12.43
2019-04-06T12:38:31.343Z,12.97
2019-04-06T12:41:28.898Z,13.70
2019-04-06T12:44:25.484Z,13.67
2019-04-06T12:47:32.810Z,13.33
2019-04-06T12:50:28.451Z,12.93
2019-04-06T12:53:29.532Z,13.17
2019-04-06T12:56:22.147Z,14.67
2019-04-06T12:59:16.342Z,13.47
2019-04-06T13:02:17.629Z,14.33
2019-04-06T13:05:06.464Z,14.00
2019-04-06T13:07:53.999Z,13.67
2019-04-06T13:10:58.216Z,13.87
2019-04-06T13:13:47.478Z,13.13
2019-04-06T13:16:26.570Z,13.70
2019-04-06T13:19:14.797Z,13.73
2019-04-06T13:22:13.570Z,14.50
2019-04-06T13:25:13.386Z,14.97
2019-04-06T13:28:01.263Z,14.83
2019-04-06T13:31:00.973Z,13.53
2019-04-06T13:33:43.042Z,14.63
2019-04-06T13:36:44.696Z,14.07
2019-04-06T13:39:36.622Z,15.17
2019-04-06T13:42:26.741Z,14.90
2019-04-06T13:45:33.839Z,14.10
2019-04-06T13:48:31.854Z,13.63
2019-04-06T13:51:08.612Z,13.93
2019-04-06T13:53:50.169Z,14.70
2019-04-06T13:56:45.647Z,15.60
2019-04-06T13:59:39.069Z,15.87
2019-04-06T14:02:36.681Z,15.50
2019-04-06T14:05:27.354Z,14.97
2019-04-06T14:08:18.198Z,15.10
2019-04-06T14:11:01.360Z,14.87
2019-04-06T14:13:54.196Z,14.20
2019-04-06T14:16:43.358Z,13.60
2019-04-06T14:19:33.040Z,12.90
2019-04-06T14:22:22.333Z,13.50
2019-04-06T14:25:15.943Z,12.57
2019-04-06T14:28:05.309Z,12.47
2019-04-06T14:30:47.578Z,13.03
2019-04-06T14:33:42.921Z,12.90
2019-04-06T14:36:35.268Z,13.30
2019-04-06T14:39:23.963Z,13.20
2019-04-06T14:42:12.771Z,12.93
2019-04-06T14:44:58.419Z,13.10
2019-04-06T14:47:36.960Z,14.13
2019-04-06T14:50:36.430Z,14.47
2019-04-06T14:53:26.088Z,13.60
2019-04-06T14:56:27.953Z,12.23
2019-04-06T14:59:17.376Z,12.87
2019-04-06T15:02:09.591Z,12.23
2019-04-06T15:05:13.889Z,11.90
2019-04-06T15:07:57.563Z,11.80
2019-04-06T15:10:37.627Z,10.90
2019-04-06T15:13:27.995Z,11.97
2019-04-06T15:16:15.553Z,11.00
2019-04-06T15:18:57.056Z,10.32
2019-04-06T15:21:36.619Z,10.48
2019-04-06T15:24:27.032Z,10.15
2019-04-06T15:27:22.820Z,10.25
2019-04-06T15:30:11.036Z,9.98
2019-04-06T15:33:01.010Z,9.90
2019-04-06T15:35:47.780Z,9.33
2019-04-06T15:38:36.041Z,9.93
2019-04-06T15:41:25.153Z,9.80
2019-04-06T15:44:13.502Z,8.90
2019-04-06T15:47:01.193Z,10.28
2019-04-06T15:49:51.241Z,9.15
2019-04-06T15:52:38.444Z,10.48
2019-04-06T15:55:31.212Z,10.00
2019-04-06T15:58:35.636Z,10.23
2019-04-06T16:01:24.869Z,10.13
2019-04-06T16:04:14.580Z,10.10
2019-04-06T16:07:30.882Z,11.45
2019-04-06T16:10:19.707Z,10.35
2019-04-06T16:13:17.860Z,10.90
2019-04-06T16:16:10.412Z,11.10
2019-04-06T16:18:47.902Z,11.05
2019-04-06T16:21:36.101Z,10.25
2019-04-06T16:24:23.939Z,10.70
2019-04-06T16:27:02.395Z,11.08
2019-04-06T16:29:54.817Z,11.12
2019-04-06T16:33:02.817Z,11.03
2019-04-06T16:35:57.984Z,11.88
2019-04-06T16:38:54.450Z,12.05
2019-04-06T16:41:42.237Z,12.55
2019-04-06T16:44:27.276Z,12.10
2019-04-06T16:47:19.421Z,13.03
2019-04-06T16:50:00.385Z,13.43
2019-04-06T16:52:48.425Z,15.03
2019-04-06T16:55:43.387Z,15.95
2019-04-06T16:58:41.612Z,14.47
2019-04-06T17:01:29.983Z,14.27
2019-04-06T17:04:14.970Z,13.03
2019-04-06T17:07:04.125Z,13.07
2019-04-06T17:09:52.113Z,12.87
2019-04-06T17:12:51.346Z,13.77
2019-04-06T17:15:38.045Z,12.73
2019-04-06T17:18:36.349Z,13.53
2019-04-06T17:21:14.844Z,13.50
2019-04-06T17:24:04.603Z,12.97
2019-04-06T17:26:52.792Z,12.57
2019-04-06T17:29:48.127Z,14.00
2019-04-06T17:32:35.931Z,12.60
2019-04-06T17:35:20.274Z,12.90
2019-04-06T17:38:09.430Z,11.33
2019-04-06T17:41:01.749Z,12.67
2019-04-06T17:43:52.313Z,12.57
2019-04-06T17:46:50.815Z,12.57
2019-04-06T17:49:49.439Z,12.30
2019-04-06T17:52:28.266Z,11.63
2019-04-06T17:55:15.891Z,12.20
2019-04-06T17:57:51.913Z,12.20
2019-04-06T18:00:38.538Z,12.43
2019-04-06T18:03:30.511Z,13.13
2019-04-06T18:06:14.089Z,12.57
2019-04-06T18:08:52.236Z,11.10
2019-04-06T18:11:40.892Z,11.50
2019-04-06T18:14:11.023Z,11.97
2019-04-06T18:16:41.171Z,11.77
2019-04-06T18:19:11.361Z,13.77
2019-04-06T18:21:41.890Z,11.17
2019-04-06T18:24:12.360Z,12.10
2019-04-06T18:26:42.571Z,11.13
2019-04-06T18:29:12.713Z,10.47
2019-04-06T18:31:49.062Z,10.03
2019-04-06T18:34:20.355Z,10.83
2019-04-06T18:37:06.898Z,12.30
2019-04-06T18:39:36.932Z,12.87
2019-04-06T18:42:08.407Z,10.83
2019-04-06T18:44:38.706Z,13.07
2019-04-06T18:47:08.874Z,12.63
2019-04-06T18:49:40.055Z,15.07
2019-04-06T18:52:10.259Z,12.47
2019-04-06T18:54:40.503Z,12.43
2019-04-06T18:57:11.610Z,12.60
2019-04-06T18:59:42.521Z,12.03
2019-04-06T19:02:14.766Z,12.20
2019-04-06T19:04:45.112Z,12.73
2019-04-06T19:07:15.341Z,12.93
2019-04-06T19:09:45.604Z,11.27
2019-04-06T19:12:16.031Z,11.10
2019-04-06T19:14:46.420Z,13.87
2019-04-06T19:17:20.127Z,13.63
2019-04-06T19:19:50.279Z,13.63
2019-04-06T19:22:20.394Z,14.43
2019-04-06T19:24:50.954Z,13.27
2019-04-06T19:27:21.547Z,15.37
2019-04-06T19:29:53.043Z,14.43
2019-04-06T19:32:23.227Z,14.10
2019-04-06T19:34:53.841Z,13.73
2019-04-06T19:37:24.150Z,13.90
2019-04-06T19:39:54.339Z,13.47
2019-04-06T19:42:25.853Z,14.13
2019-04-06T19:44:57.279Z,15.03
2019-04-06T19:47:27.769Z,18.53
2019-04-06T19:49:58.268Z,16.03
2019-04-06T19:52:30.002Z,16.50
2019-04-06T19:55:01.441Z,15.67
2019-04-06T19:57:32.372Z,14.20
2019-04-06T20:00:02.621Z,13.70
2019-04-06T20:02:34.451Z,15.80
2019-04-06T20:05:05.156Z,16.27
2019-04-06T20:07:36.582Z,16.47
2019-04-06T20:10:08.422Z,15.63
2019-04-06T20:12:38.929Z,13.33
2019-04-06T20:15:09.425Z,13.70
2019-04-06T20:17:41.001Z,15.30
2019-04-06T20:20:12.032Z,13.30
2019-04-06T20:22:42.213Z,14.63
2019-04-06T20:25:15.231Z,16.63
2019-04-06T20:27:45.460Z,13.27
2019-04-06T20:30:16.209Z,14.97
2019-04-06T20:32:46.762Z,16.23
2019-04-06T20:35:17.696Z,15.10
2019-04-06T20:37:47.930Z,15.30
2019-04-06T20:40:19.681Z,17.00
2019-04-06T20:42:49.962Z,15.30
2019-04-06T20:45:20.445Z,13.77
2019-04-06T20:47:50.697Z,15.73
2019-04-06T20:50:21.619Z,17.77
2019-04-06T20:52:52.433Z,15.13
2019-04-06T20:55:23.289Z,16.40
2019-04-06T20:57:53.962Z,16.90
2019-04-06T21:00:24.557Z,14.47
2019-04-06T21:02:55.239Z,15.23
2019-04-06T21:05:25.759Z,17.13
2019-04-06T21:07:56.821Z,13.20
2019-04-06T21:10:27.319Z,14.70
2019-04-06T21:12:57.649Z,16.40
2019-04-06T21:15:28.418Z,13.83
2019-04-06T21:18:00.953Z,16.60
2019-04-06T21:20:31.483Z,14.93
2019-04-06T21:23:01.692Z,16.37
2019-04-06T21:25:33.060Z,14.60
2019-04-06T21:28:03.240Z,15.73
2019-04-06T21:30:35.312Z,16.00
2019-04-06T21:33:05.504Z,18.33
2019-04-06T21:35:35.726Z,15.50
2019-04-06T21:38:05.842Z,15.43
2019-04-06T21:40:36.111Z,15.00
2019-04-06T21:43:06.876Z,15.87
2019-04-06T21:45:39.465Z,16.33
2019-04-06T21:48:09.751Z,14.63
2019-04-06T21:50:40.000Z,16.80
2019-04-06T21:53:10.589Z,16.10
2019-04-06T21:55:40.814Z,16.13
2019-04-06T21:58:11.017Z,13.53
2019-04-06T22:00:50.085Z,14.70
2019-04-06T22:03:20.758Z,14.50
2019-04-06T22:05:51.310Z,15.23
2019-04-06T22:08:21.714Z,16.03
2019-04-06T22:10:51.383Z,16.17
2019-04-06T22:13:21.575Z,14.37
2019-04-06T22:15:52.738Z,13.87
2019-04-06T22:18:23.543Z,13.57
2019-04-06T22:20:56.907Z,14.00
2019-04-06T22:23:39.852Z,12.67
2019-04-06T22:26:00.536Z,14.63
2019-04-06T22:28:31.144Z,15.10
2019-04-06T22:31:01.817Z,26.13
2019-04-06T22:33:31.987Z,16.10
2019-04-06T22:36:02.214Z,14.63
2019-04-06T22:38:33.120Z,13.40
2019-04-06T22:41:03.587Z,14.50
2019-04-06T22:43:33.846Z,16.37
2019-04-06T22:46:04.346Z,13.10
2019-04-06T22:48:34.727Z,13.93
2019-04-06T22:51:05.641Z,15.47
2019-04-06T22:53:36.017Z,15.60
2019-04-06T22:56:06.717Z,16.80
2019-04-06T22:58:36.923Z,15.87
2019-04-06T23:01:12.881Z,14.90
2019-04-06T23:04:01.131Z,14.00
2019-04-06T23:06:44.843Z,17.10
2019-04-06T23:09:15.113Z,17.10
2019-04-06T23:11:45.896Z,15.47
2019-04-06T23:14:16.909Z,16.30
2019-04-06T23:16:47.642Z,16.67
2019-04-06T23:19:18.101Z,16.33
2019-04-06T23:21:48.798Z,15.23
2019-04-06T23:24:19.350Z,16.77
2019-04-06T23:26:48.986Z,15.73
2019-04-06T23:29:19.489Z,15.60
2019-04-06T23:31:49.697Z,16.03
2019-04-06T23:34:20.313Z,18.10
2019-04-06T23:36:51.116Z,15.53
2019-04-06T23:39:21.749Z,17.43
2019-04-06T23:41:52.055Z,16.37
2019-04-06T23:44:22.235Z,19.53
2019-04-06T23:46:54.363Z,14.77
2019-04-06T23:49:24.715Z,17.20
2019-04-06T23:51:55.469Z,17.07
2019-04-06T23:54:26.375Z,14.73
2019-04-06T23:56:57.940Z,17.27
2019-04-06T23:59:28.171Z,13.63
